Time;durP1;ratioP1;P1;durP2;ratioP2;P2;SDS_P1;SDS_P2;PMS_P1;PMS_P2;Temp;Humidity;BMP_temperature;BMP_pressure;BME280_temperature;BME280_humidity;BME280_pressure;Samples;Min_cycle;Max_cycle;Signal;HPM_P1;HPM_P2
2023/07/11 00:02:19;;;;;;;3.47;1.38;;;;;;;;;;6053772;23;19998;-87
2023/07/11 00:04:45;;;;;;;5.10;1.80;;;;;;;;;;6054105;23;20083;-87
2023/07/11 00:07:10;;;;;;;4.88;1.77;;;;;;;;;;6053189;23;20003;-86
2023/07/11 00:09:35;;;;;;;3.55;1.70;;;;;;;;;;6076712;23;20014;-87
2023/07/11 00:12:00;;;;;;;5.03;1.75;;;;;;;;;;6077062;23;20113;-87
2023/07/11 00:14:26;;;;;;;3.22;1.42;;;;;;;;;;6052985;23;20009;-87
2023/07/11 00:16:52;;;;;;;5.38;1.75;;;;;;;;;;6053046;23;20013;-86
2023/07/11 00:19:19;;;;;;;3.45;1.73;;;;;;;;;;6052337;23;20030;-87
2023/07/11 00:21:47;;;;;;;4.97;2.17;;;;;;;;;;6078034;23;19999;-86
2023/07/11 00:24:16;;;;;;;3.53;1.92;;;;;;;;;;6053034;23;19995;-87
2023/07/11 00:26:41;;;;;;;3.35;1.60;;;;;;;;;;6052505;23;19995;-87
2023/07/11 00:29:13;;;;;;;8.70;1.90;;;;;;;;;;6078129;23;20006;-87
2023/07/11 00:31:38;;;;;;;4.82;1.77;;;;;;;;;;6053797;23;20090;-87
2023/07/11 00:34:04;;;;;;;2.78;1.67;;;;;;;;;;6078922;23;20002;-87
2023/07/11 00:36:29;;;;;;;5.18;2.05;;;;;;;;;;6081294;23;20005;-87
2023/07/11 00:38:55;;;;;;;3.05;2.08;;;;;;;;;;6078518;23;20074;-87
2023/07/11 00:41:21;;;;;;;6.75;2.33;;;;;;;;;;6061009;23;20351;-86
2023/07/11 00:43:46;;;;;;;3.70;1.83;;;;;;;;;;6078035;23;20086;-87
2023/07/11 00:46:16;;;;;;;7.65;2.15;;;;;;;;;;6079283;23;20459;-87
2023/07/11 00:48:47;;;;;;;6.13;1.70;;;;;;;;;;6081602;23;20002;-86
2023/07/11 00:51:14;;;;;;;4.25;2.13;;;;;;;;;;6080505;23;20356;-87
2023/07/11 00:53:42;;;;;;;6.90;2.35;;;;;;;;;;6081554;23;20033;-87
2023/07/11 00:56:08;;;;;;;3.25;1.70;;;;;;;;;;6082079;23;20110;-87
2023/07/11 00:58:35;;;;;;;4.57;2.33;;;;;;;;;;6080183;23;19998;-87
2023/07/11 01:01:00;;;;;;;3.40;1.70;;;;;;;;;;6078417;23;20003;-87
2023/07/11 01:03:26;;;;;;;3.20;1.95;;;;;;;;;;6078042;23;20090;-87
2023/07/11 01:05:54;;;;;;;5.63;2.13;;;;;;;;;;6079018;23;19999;-87
2023/07/11 01:08:19;;;;;;;2.90;1.75;;;;;;;;;;6077867;23;20058;-87
2023/07/11 01:10:45;;;;;;;3.05;1.80;;;;;;;;;;6079794;23;20436;-87
2023/07/11 01:13:10;;;;;;;4.25;2.28;;;;;;;;;;6080892;23;20035;-88
2023/07/11 01:15:36;;;;;;;3.95;1.65;;;;;;;;;;6082467;23;20010;-87
2023/07/11 01:18:01;;;;;;;4.38;2.10;;;;;;;;;;6079084;23;20276;-86
2023/07/11 01:20:27;;;;;;;3.80;2.38;;;;;;;;;;6078387;23;20013;-87
2023/07/11 01:22:52;;;;;;;4.18;1.85;;;;;;;;;;6080802;23;20062;-87
2023/07/11 01:25:18;;;;;;;8.30;1.90;;;;;;;;;;6081032;23;20094;-87
2023/07/11 01:27:45;;;;;;;3.45;1.63;;;;;;;;;;6076577;23;20094;-86
2023/07/11 01:30:11;;;;;;;6.85;2.20;;;;;;;;;;6077137;23;20002;-86
2023/07/11 01:32:37;;;;;;;3.15;2.03;;;;;;;;;;6077499;23;20006;-87
2023/07/11 01:35:03;;;;;;;5.05;2.38;;;;;;;;;;6076748;23;20013;-86
2023/07/11 01:37:29;;;;;;;7.97;2.13;;;;;;;;;;6076442;23;20073;-87
2023/07/11 01:39:54;;;;;;;4.82;1.83;;;;;;;;;;6075849;23;20014;-86
2023/07/11 01:42:19;;;;;;;5.32;2.30;;;;;;;;;;6077870;23;20011;-87
2023/07/11 01:44:45;;;;;;;6.57;2.45;;;;;;;;;;6078141;23;19998;-87
2023/07/11 01:47:10;;;;;;;4.18;2.67;;;;;;;;;;6077161;23;19998;-87
2023/07/11 01:49:36;;;;;;;3.10;2.15;;;;;;;;;;6079320;23;20029;-86
2023/07/11 01:52:12;;;;;;;5.93;2.50;;;;;;;;;;6078064;23;20006;-87
2023/07/11 01:54:38;;;;;;;4.65;2.55;;;;;;;;;;6078634;23;20086;-86
2023/07/11 01:57:03;;;;;;;5.10;2.40;;;;;;;;;;6079030;23;20030;-87
2023/07/11 01:59:29;;;;;;;5.35;2.05;;;;;;;;;;6076347;23;20094;-86
2023/07/11 02:01:54;;;;;;;5.10;2.25;;;;;;;;;;6077817;23;20058;-87
2023/07/11 02:04:21;;;;;;;5.65;2.28;;;;;;;;;;6077859;23;20007;-86
2023/07/11 02:06:50;;;;;;;4.78;2.40;;;;;;;;;;6078753;23;20086;-87
2023/07/11 02:09:16;;;;;;;6.82;2.17;;;;;;;;;;6076798;23;20034;-87
2023/07/11 02:11:41;;;;;;;3.85;2.40;;;;;;;;;;6076285;23;20027;-86
2023/07/11 02:14:07;;;;;;;3.92;2.17;;;;;;;;;;6076100;23;19999;-87
2023/07/11 02:16:32;;;;;;;5.13;2.40;;;;;;;;;;6076389;23;20003;-86
2023/07/11 02:18:58;;;;;;;3.95;1.80;;;;;;;;;;6076810;23;19999;-87
2023/07/11 02:21:26;;;;;;;3.60;1.77;;;;;;;;;;6076138;23;20066;-86
2023/07/11 02:23:51;;;;;;;5.82;2.08;;;;;;;;;;6076879;23;20062;-86
2023/07/11 02:26:16;;;;;;;5.70;2.72;;;;;;;;;;6079207;23;20002;-86
2023/07/11 02:28:42;;;;;;;5.65;2.40;;;;;;;;;;6080441;23;20002;-86
2023/07/11 02:31:07;;;;;;;5.68;2.20;;;;;;;;;;6078333;23;20075;-87
2023/07/11 02:33:33;;;;;;;4.75;2.20;;;;;;;;;;6078853;23;20003;-86
2023/07/11 02:35:58;;;;;;;5.63;2.33;;;;;;;;;;6078700;23;20093;-86
2023/07/11 02:38:24;;;;;;;4.53;2.20;;;;;;;;;;6077649;23;20030;-87
2023/07/11 02:40:49;;;;;;;7.78;2.17;;;;;;;;;;6074872;23;20015;-86
2023/07/11 02:43:16;;;;;;;2.90;1.92;;;;;;;;;;6056164;23;20092;-86
2023/07/11 02:45:41;;;;;;;4.32;2.30;;;;;;;;;;6055075;23;20380;-80
2023/07/11 02:48:07;;;;;;;3.83;2.42;;;;;;;;;;6069752;23;20003;-80
2023/07/11 02:50:32;;;;;;;3.90;2.28;;;;;;;;;;6042863;23;19999;-80
2023/07/11 02:52:58;;;;;;;4.78;2.55;;;;;;;;;;6049099;23;20017;-80
2023/07/11 02:55:23;;;;;;;7.80;2.60;;;;;;;;;;6067525;23;20003;-80
2023/07/11 02:57:52;;;;;;;7.70;3.10;;;;;;;;;;6043726;23;20038;-80
2023/07/11 03:00:17;;;;;;;6.03;2.17;;;;;;;;;;6043614;23;20374;-81
2023/07/11 03:02:42;;;;;;;6.75;2.10;;;;;;;;;;6069296;23;19990;-81
2023/07/11 03:05:08;;;;;;;2.45;1.80;;;;;;;;;;6068993;23;20003;-81
2023/07/11 03:07:33;;;;;;;3.58;1.90;;;;;;;;;;6043234;23;19999;-80
2023/07/11 03:09:58;;;;;;;5.13;2.33;;;;;;;;;;6066939;23;20007;-81
2023/07/11 03:12:24;;;;;;;3.13;2.15;;;;;;;;;;6067124;23;20022;-80
2023/07/11 03:14:50;;;;;;;4.30;2.33;;;;;;;;;;6067142;23;20010;-81
2023/07/11 03:17:16;;;;;;;5.22;2.33;;;;;;;;;;6043263;23;19999;-80
2023/07/11 03:19:41;;;;;;;6.70;2.35;;;;;;;;;;6042939;23;20050;-81
2023/07/11 03:22:06;;;;;;;4.97;2.15;;;;;;;;;;6067166;23;20095;-80
2023/07/11 03:24:31;;;;;;;3.85;2.30;;;;;;;;;;6043149;23;20142;-81
2023/07/11 03:26:57;;;;;;;6.07;2.50;;;;;;;;;;6067022;23;19999;-80
2023/07/11 03:29:22;;;;;;;4.38;2.30;;;;;;;;;;6043289;23;20010;-81
2023/07/11 03:31:47;;;;;;;4.03;2.10;;;;;;;;;;6067356;23;20450;-81
2023/07/11 03:34:13;;;;;;;3.63;1.92;;;;;;;;;;6042882;23;20018;-80
2023/07/11 03:36:40;;;;;;;3.53;2.20;;;;;;;;;;6043260;23;20404;-81
2023/07/11 03:39:05;;;;;;;4.50;2.20;;;;;;;;;;6042456;23;20311;-81
2023/07/11 03:41:31;;;;;;;4.57;2.20;;;;;;;;;;6068764;23;20046;-81
2023/07/11 03:43:56;;;;;;;3.97;2.00;;;;;;;;;;6068742;23;20009;-81
2023/07/11 03:46:21;;;;;;;4.45;2.00;;;;;;;;;;6044225;23;20003;-81
2023/07/11 03:48:47;;;;;;;4.93;2.15;;;;;;;;;;6043231;23;20006;-81
2023/07/11 03:51:12;;;;;;;3.80;1.95;;;;;;;;;;6043350;23;20449;-81
2023/07/11 03:53:37;;;;;;;4.70;2.25;;;;;;;;;;6043462;23;20014;-81
2023/07/11 03:56:04;;;;;;;3.58;1.98;;;;;;;;;;6070098;23;20041;-81
2023/07/11 03:58:29;;;;;;;5.28;2.22;;;;;;;;;;6068222;23;20079;-81
2023/07/11 04:00:55;;;;;;;5.05;2.20;;;;;;;;;;6043473;23;20007;-80
2023/07/11 04:03:20;;;;;;;3.88;2.30;;;;;;;;;;6043729;23;20002;-81
2023/07/11 04:05:45;;;;;;;4.63;2.35;;;;;;;;;;6044341;23;19999;-81
2023/07/11 04:08:11;;;;;;;8.43;2.40;;;;;;;;;;6045132;23;20407;-81
2023/07/11 04:10:36;;;;;;;3.03;1.77;;;;;;;;;;6044614;23;20014;-80
2023/07/11 04:13:02;;;;;;;2.80;1.83;;;;;;;;;;6045153;23;20050;-81
2023/07/11 04:15:28;;;;;;;5.28;2.10;;;;;;;;;;6068941;23;20376;-81
2023/07/11 04:17:53;;;;;;;3.83;2.13;;;;;;;;;;6067291;23;20376;-81
2023/07/11 04:20:18;;;;;;;4.28;1.85;;;;;;;;;;6068013;23;20007;-80
2023/07/11 04:22:43;;;;;;;4.30;2.28;;;;;;;;;;6042620;23;20011;-81
2023/07/11 04:25:09;;;;;;;3.95;1.75;;;;;;;;;;6068884;23;20075;-81
2023/07/11 04:27:35;;;;;;;4.20;1.73;;;;;;;;;;6042645;23;20010;-81
2023/07/11 04:30:00;;;;;;;6.75;1.88;;;;;;;;;;6066579;23;20357;-81
2023/07/11 04:32:26;;;;;;;5.82;2.30;;;;;;;;;;6066464;23;20102;-81
2023/07/11 04:34:51;;;;;;;6.47;2.28;;;;;;;;;;6068289;23;20009;-81
2023/07/11 04:37:16;;;;;;;3.92;2.00;;;;;;;;;;6042559;23;20041;-81
2023/07/11 04:39:41;;;;;;;2.70;1.60;;;;;;;;;;6066523;23;20404;-81
2023/07/11 04:42:07;;;;;;;10.15;2.20;;;;;;;;;;6057419;23;20003;-81
2023/07/11 04:44:32;;;;;;;11.15;2.08;;;;;;;;;;6068166;23;20003;-81
2023/07/11 04:46:57;;;;;;;5.55;1.95;;;;;;;;;;6067942;23;19998;-81
2023/07/11 04:49:23;;;;;;;3.75;1.63;;;;;;;;;;6066341;23;20007;-81
2023/07/11 04:51:50;;;;;;;2.75;1.75;;;;;;;;;;6067882;23;20010;-81
2023/07/11 04:54:15;;;;;;;4.63;1.40;;;;;;;;;;6066471;23;20316;-82
2023/07/11 04:56:41;;;;;;;4.85;1.73;;;;;;;;;;6066252;23;20093;-82
2023/07/11 04:59:06;;;;;;;3.63;1.77;;;;;;;;;;6066293;23;20007;-81
2023/07/11 05:01:34;;;;;;;3.67;1.58;;;;;;;;;;6089985;23;20003;-81
2023/07/11 05:03:59;;;;;;;5.80;1.40;;;;;;;;;;6066415;23;20085;-81
2023/07/11 05:06:25;;;;;;;4.80;1.60;;;;;;;;;;6066173;23;20404;-82
2023/07/11 05:08:57;;;;;;;6.13;1.38;;;;;;;;;;6066110;23;20418;-82
2023/07/11 05:11:23;;;;;;;3.05;1.40;;;;;;;;;;6066295;23;19999;-80
2023/07/11 05:13:49;;;;;;;6.35;1.58;;;;;;;;;;6065361;23;20312;-81
2023/07/11 05:16:15;;;;;;;4.07;1.60;;;;;;;;;;6068257;23;20121;-82
2023/07/11 05:18:41;;;;;;;3.65;1.50;;;;;;;;;;6090118;23;20003;-82
2023/07/11 05:21:10;;;;;;;3.33;1.40;;;;;;;;;;6066529;23;20093;-82
2023/07/11 05:23:36;;;;;;;3.53;1.15;;;;;;;;;;6066506;23;19995;-81
2023/07/11 05:26:02;;;;;;;3.78;1.48;;;;;;;;;;6092997;23;19999;-81
2023/07/11 05:28:29;;;;;;;2.70;1.30;;;;;;;;;;6069625;23;20006;-86
2023/07/11 05:30:55;;;;;;;7.25;1.58;;;;;;;;;;6069147;23;20090;-86
2023/07/11 05:33:21;;;;;;;5.93;1.80;;;;;;;;;;6068356;23;20062;-84
2023/07/11 05:36:07;;;;;;;5.50;1.60;;;;;;;;;;6066834;23;20058;-84
2023/07/11 05:38:33;;;;;;;2.88;1.40;;;;;;;;;;6064778;23;20009;-83
2023/07/11 05:40:59;;;;;;;3.00;1.73;;;;;;;;;;6066145;23;20010;-84
2023/07/11 05:43:24;;;;;;;4.03;1.67;;;;;;;;;;6069055;23;20006;-84
2023/07/11 05:45:50;;;;;;;9.32;1.95;;;;;;;;;;6070140;23;20021;-84
2023/07/11 05:48:15;;;;;;;4.07;1.50;;;;;;;;;;6065342;23;20003;-84
2023/07/11 05:50:40;;;;;;;7.78;1.80;;;;;;;;;;6067224;23;20042;-84
2023/07/11 05:53:06;;;;;;;2.70;1.55;;;;;;;;;;6066836;23;20268;-84
2023/07/11 05:55:31;;;;;;;6.35;1.30;;;;;;;;;;6065564;23;20026;-83
2023/07/11 05:57:56;;;;;;;3.97;1.38;;;;;;;;;;6065345;23;19991;-84
2023/07/11 06:00:22;;;;;;;3.35;1.50;;;;;;;;;;6064916;23;20006;-84
2023/07/11 06:02:47;;;;;;;2.97;1.55;;;;;;;;;;6066923;23;19998;-84
2023/07/11 06:05:12;;;;;;;3.90;1.75;;;;;;;;;;6065568;23;19998;-84
2023/07/11 06:07:39;;;;;;;4.88;1.42;;;;;;;;;;6065427;23;20006;-83
2023/07/11 06:10:04;;;;;;;4.35;1.45;;;;;;;;;;6065335;23;20445;-84
2023/07/11 06:12:30;;;;;;;3.03;1.45;;;;;;;;;;6065405;23;19999;-84
2023/07/11 06:14:55;;;;;;;3.45;1.60;;;;;;;;;;6067353;23;20014;-84
2023/07/11 06:17:20;;;;;;;2.85;1.05;;;;;;;;;;6064557;23;20090;-83
2023/07/11 06:19:46;;;;;;;3.03;1.40;;;;;;;;;;6065226;23;20022;-84
2023/07/11 06:22:12;;;;;;;6.45;1.52;;;;;;;;;;6065316;23;20003;-84
2023/07/11 06:24:37;;;;;;;4.72;1.42;;;;;;;;;;6065476;23;19999;-84
2023/07/11 06:27:05;;;;;;;3.85;1.90;;;;;;;;;;6066801;23;20026;-84
2023/07/11 06:29:31;;;;;;;4.10;1.45;;;;;;;;;;6065159;23;20006;-84
2023/07/11 06:31:56;;;;;;;3.10;1.52;;;;;;;;;;6065498;23;20003;-84
2023/07/11 06:34:22;;;;;;;5.90;1.73;;;;;;;;;;6067019;23;20400;-83
2023/07/11 06:36:47;;;;;;;1.20;0.57;;;;;;;;;;6067119;23;20278;-84
2023/07/11 06:39:12;;;;;;;7.20;2.08;;;;;;;;;;6065188;23;20010;-84
2023/07/11 06:41:38;;;;;;;3.92;1.52;;;;;;;;;;6065138;23;20006;-84
2023/07/11 06:44:08;;;;;;;7.18;1.75;;;;;;;;;;6089522;23;20007;-84
2023/07/11 06:46:34;;;;;;;3.47;1.48;;;;;;;;;;6067350;23;20003;-84
2023/07/11 06:48:59;;;;;;;5.32;1.42;;;;;;;;;;6065993;23;20085;-84
2023/07/11 06:51:25;;;;;;;4.40;1.70;;;;;;;;;;6065948;23;20031;-84
2023/07/11 06:53:50;;;;;;;5.68;1.50;;;;;;;;;;6065761;23;20007;-83
2023/07/11 06:56:16;;;;;;;7.30;1.52;;;;;;;;;;6069075;23;20006;-84
2023/07/11 06:58:42;;;;;;;4.80;1.75;;;;;;;;;;6070647;23;20011;-84
2023/07/11 07:01:08;;;;;;;5.82;2.40;;;;;;;;;;6070381;23;20030;-84
2023/07/11 07:03:33;;;;;;;5.45;1.80;;;;;;;;;;6093959;23;20090;-85
2023/07/11 07:06:05;;;;;;;6.47;1.33;;;;;;;;;;6069266;23;19999;-84
2023/07/11 07:08:30;;;;;;;5.53;1.50;;;;;;;;;;6066004;23;20451;-84
2023/07/11 07:10:59;;;;;;;5.68;1.52;;;;;;;;;;6069855;23;20006;-85
2023/07/11 07:13:25;;;;;;;3.10;1.35;;;;;;;;;;6074656;23;20356;-84
2023/07/11 07:15:53;;;;;;;5.10;1.58;;;;;;;;;;6074115;23;20060;-84
2023/07/11 07:18:18;;;;;;;3.95;1.40;;;;;;;;;;6047380;23;20009;-87
2023/07/11 07:20:45;;;;;;;4.35;1.25;;;;;;;;;;6091062;23;20011;-87
2023/07/11 07:23:10;;;;;;;4.85;1.70;;;;;;;;;;6068078;23;20399;-86
2023/07/11 07:25:36;;;;;;;11.13;1.48;;;;;;;;;;6067698;23;19995;-87
2023/07/11 07:28:04;;;;;;;4.30;1.63;;;;;;;;;;6066195;23;19999;-87
2023/07/11 07:30:32;;;;;;;1.95;1.15;;;;;;;;;;6068150;23;20337;-88
2023/07/11 07:33:01;;;;;;;2.88;1.38;;;;;;;;;;6068048;23;20018;-88
2023/07/11 07:35:26;;;;;;;3.38;1.25;;;;;;;;;;6090588;23;20022;-87
2023/07/11 07:37:51;;;;;;;5.65;1.38;;;;;;;;;;6068244;23;20002;-88
2023/07/11 07:40:17;;;;;;;3.08;1.42;;;;;;;;;;6067876;23;20546;-87
2023/07/11 07:42:42;;;;;;;6.18;1.77;;;;;;;;;;6068245;23;20034;-87
2023/07/11 07:45:07;;;;;;;4.25;1.17;;;;;;;;;;6069727;23;20437;-87
2023/07/11 07:47:35;;;;;;;2.33;1.30;;;;;;;;;;6069252;23;20073;-87
2023/07/11 07:50:00;;;;;;;2.65;1.20;;;;;;;;;;6068181;23;20046;-86
2023/07/11 07:52:28;;;;;;;4.72;1.33;;;;;;;;;;6069337;23;19999;-88
2023/07/11 07:54:53;;;;;;;4.60;1.48;;;;;;;;;;6069678;23;20003;-88
2023/07/11 07:57:18;;;;;;;7.18;1.63;;;;;;;;;;6092018;23;20027;-88
2023/07/11 07:59:43;;;;;;;3.75;1.00;;;;;;;;;;6091806;23;20010;-88
2023/07/11 08:02:11;;;;;;;4.65;1.60;;;;;;;;;;6068072;23;20057;-88
2023/07/11 08:04:37;;;;;;;5.78;1.30;;;;;;;;;;6067838;23;20030;-88
2023/07/11 08:07:03;;;;;;;4.60;1.10;;;;;;;;;;6069539;23;20269;-88
2023/07/11 08:09:29;;;;;;;5.82;1.40;;;;;;;;;;6069578;23;20066;-88
2023/07/11 08:11:54;;;;;;;3.67;1.40;;;;;;;;;;6068134;23;20011;-88
2023/07/11 08:14:20;;;;;;;3.55;1.25;;;;;;;;;;6068122;23;20049;-88
2023/07/11 08:16:45;;;;;;;3.22;1.30;;;;;;;;;;6068045;23;20029;-87
2023/07/11 08:19:10;;;;;;;4.40;1.55;;;;;;;;;;6069661;23;20007;-87
2023/07/11 08:21:36;;;;;;;3.97;1.23;;;;;;;;;;6071575;23;20134;-88
2023/07/11 08:24:02;;;;;;;2.88;1.20;;;;;;;;;;6091999;23;20001;-87
2023/07/11 08:26:30;;;;;;;2.72;1.08;;;;;;;;;;6067964;23;19999;-87
2023/07/11 08:28:56;;;;;;;6.22;1.52;;;;;;;;;;6067599;23;20003;-88
2023/07/11 08:31:22;;;;;;;3.05;1.33;;;;;;;;;;6072139;23;20319;-87
2023/07/11 08:33:47;;;;;;;3.45;1.35;;;;;;;;;;6072130;23;20003;-87
2023/07/11 08:36:13;;;;;;;5.47;1.10;;;;;;;;;;6071812;23;20010;-87
2023/07/11 08:38:38;;;;;;;2.53;0.88;;;;;;;;;;6069395;23;20007;-87
2023/07/11 08:41:24;;;;;;;4.55;1.10;;;;;;;;;;6095168;23;20011;-87
2023/07/11 08:43:51;;;;;;;7.93;2.15;;;;;;;;;;6067194;23;20343;-86
2023/07/11 08:46:17;;;;;;;4.47;1.23;;;;;;;;;;6067747;23;20308;-87
2023/07/11 08:48:47;;;;;;;2.25;0.80;;;;;;;;;;6066752;23;19998;-86
2023/07/11 08:51:21;;;;;;;5.43;1.77;;;;;;;;;;6068984;23;20434;-86
2023/07/11 08:53:51;;;;;;;4.65;1.20;;;;;;;;;;6069317;23;19998;-86
2023/07/11 08:56:29;;;;;;;2.83;1.25;;;;;;;;;;6091539;23;20010;-86
2023/07/11 08:58:57;;;;;;;2.85;1.10;;;;;;;;;;6067484;23;20014;-87
2023/07/11 09:01:29;;;;;;;5.78;1.35;;;;;;;;;;6067485;23;20007;-86
2023/07/11 09:03:55;;;;;;;4.82;1.38;;;;;;;;;;6068888;23;20010;-87
2023/07/11 09:06:22;;;;;;;6.90;1.50;;;;;;;;;;6067234;23;20006;-87
2023/07/11 09:08:54;;;;;;;3.38;1.20;;;;;;;;;;6066996;23;20003;-87
2023/07/11 09:11:27;;;;;;;3.55;1.50;;;;;;;;;;6068774;23;19998;-87
2023/07/11 09:13:52;;;;;;;4.28;1.33;;;;;;;;;;6067469;23;20013;-87
2023/07/11 09:16:24;;;;;;;4.55;1.77;;;;;;;;;;6067653;23;20026;-87
2023/07/11 09:18:58;;;;;;;9.20;1.50;;;;;;;;;;6067142;23;20348;-87
2023/07/11 09:21:26;;;;;;;5.55;1.50;;;;;;;;;;6068485;23;19995;-88
2023/07/11 09:24:11;;;;;;;5.43;1.33;;;;;;;;;;6067369;23;20077;-86
2023/07/11 09:26:42;;;;;;;4.35;1.45;;;;;;;;;;6051411;23;20006;-87
2023/07/11 09:29:07;;;;;;;3.60;1.10;;;;;;;;;;6068517;23;20031;-87
2023/07/11 09:31:38;;;;;;;2.20;1.13;;;;;;;;;;6067036;23;20010;-87
2023/07/11 09:34:09;;;;;;;5.90;1.50;;;;;;;;;;6068562;23;20006;-87
2023/07/11 09:36:37;;;;;;;6.15;1.55;;;;;;;;;;6091099;23;20555;-87
2023/07/11 09:39:12;;;;;;;5.53;1.23;;;;;;;;;;6090973;23;20534;-88
2023/07/11 09:41:50;;;;;;;3.00;0.88;;;;;;;;;;6068767;23;20014;-87
2023/07/11 09:44:15;;;;;;;6.75;1.27;;;;;;;;;;6068624;23;20003;-87
2023/07/11 09:46:40;;;;;;;4.22;1.13;;;;;;;;;;6067380;23;20453;-87
2023/07/11 09:49:16;;;;;;;3.70;1.33;;;;;;;;;;6066835;23;19998;-86
2023/07/11 09:51:47;;;;;;;4.35;1.20;;;;;;;;;;6043266;23;20082;-88
2023/07/11 09:54:19;;;;;;;3.58;1.50;;;;;;;;;;6042037;23;20018;-87
2023/07/11 09:56:46;;;;;;;2.88;1.27;;;;;;;;;;6067807;23;20009;-87
2023/07/11 09:59:12;;;;;;;6.68;1.73;;;;;;;;;;6068120;23;20030;-87
2023/07/11 10:01:37;;;;;;;7.55;1.33;;;;;;;;;;6068522;23;20042;-87
2023/07/11 10:04:08;;;;;;;3.30;1.13;;;;;;;;;;6043229;23;20054;-90
2023/07/11 10:06:37;;;;;;;7.55;1.90;;;;;;;;;;6043127;23;20006;-87
2023/07/11 10:09:12;;;;;;;4.45;1.83;;;;;;;;;;6043367;23;20284;-88
2023/07/11 10:11:37;;;;;;;6.97;1.40;;;;;;;;;;6042830;23;20010;-87
2023/07/11 10:14:02;;;;;;;3.72;1.30;;;;;;;;;;6046333;23;20003;-87
2023/07/11 10:16:30;;;;;;;3.35;1.77;;;;;;;;;;6043509;23;20003;-87
2023/07/11 10:18:56;;;;;;;5.90;1.50;;;;;;;;;;6042961;23;20007;-87
2023/07/11 10:21:25;;;;;;;8.85;2.20;;;;;;;;;;6042874;23;20089;-86
2023/07/11 10:23:51;;;;;;;6.90;1.67;;;;;;;;;;6042509;23;20003;-86
2023/07/11 10:26:24;;;;;;;5.20;1.50;;;;;;;;;;6043047;23;20098;-86
2023/07/11 10:29:00;;;;;;;6.95;1.75;;;;;;;;;;6042048;23;20007;-88
2023/07/11 10:31:34;;;;;;;5.70;1.42;;;;;;;;;;6042420;23;20003;-88
2023/07/11 10:34:02;;;;;;;3.33;1.23;;;;;;;;;;6042647;23;20284;-89
2023/07/11 10:36:47;;;;;;;3.28;1.40;;;;;;;;;;6067394;23;20091;-89
2023/07/11 10:39:16;;;;;;;6.45;1.30;;;;;;;;;;6018498;23;20381;-86
2023/07/11 10:41:53;;;;;;;6.25;1.40;;;;;;;;;;6052421;23;20025;-88
2023/07/11 10:44:30;;;;;;;4.55;1.58;;;;;;;;;;6066754;23;20423;-86
2023/07/11 10:46:56;;;;;;;6.53;1.70;;;;;;;;;;6068338;23;20446;-88
2023/07/11 10:49:24;;;;;;;3.97;1.80;;;;;;;;;;6090698;23;20081;-86
2023/07/11 10:52:00;;;;;;;4.68;1.60;;;;;;;;;;6066615;23;20011;-87
2023/07/11 10:54:55;;;;;;;7.43;1.73;;;;;;;;;;6066673;23;20334;-87
2023/07/11 10:57:44;;;;;;;5.47;1.85;;;;;;;;;;6055169;23;20064;-87
2023/07/11 11:00:16;;;;;;;5.47;1.48;;;;;;;;;;6055522;23;20026;-87
2023/07/11 11:02:54;;;;;;;3.88;1.52;;;;;;;;;;6066253;23;20007;-89
2023/07/11 11:05:19;;;;;;;6.75;1.90;;;;;;;;;;6069057;23;20003;-88
2023/07/11 11:07:47;;;;;;;9.43;2.00;;;;;;;;;;6066953;23;20042;-88
2023/07/11 11:10:28;;;;;;;6.63;1.38;;;;;;;;;;6068632;23;20049;-89
2023/07/11 11:13:15;;;;;;;3.30;1.58;;;;;;;;;;6068912;23;20309;-89
2023/07/11 11:15:46;;;;;;;4.72;1.45;;;;;;;;;;6068487;23;19999;-88
2023/07/11 11:18:29;;;;;;;8.02;1.77;;;;;;;;;;6068555;23;20395;-89
2023/07/11 11:21:04;;;;;;;5.65;1.80;;;;;;;;;;6070219;23;20078;-88
2023/07/11 11:23:35;;;;;;;6.43;2.05;;;;;;;;;;6068733;23;20273;-88
2023/07/11 11:26:03;;;;;;;5.90;1.60;;;;;;;;;;6068794;23;20022;-88
2023/07/11 11:28:39;;;;;;;4.38;1.85;;;;;;;;;;6068940;23;20156;-88
2023/07/11 11:31:09;;;;;;;3.45;1.33;;;;;;;;;;6068772;23;20013;-89
2023/07/11 11:33:35;;;;;;;5.10;1.95;;;;;;;;;;6069393;23;19998;-89
2023/07/11 11:36:04;;;;;;;8.52;2.15;;;;;;;;;;6070780;23;19999;-88
2023/07/11 11:38:29;;;;;;;8.30;1.60;;;;;;;;;;6069136;23;20003;-89
2023/07/11 11:40:57;;;;;;;8.60;1.67;;;;;;;;;;6068978;23;20002;-89
2023/07/11 11:43:24;;;;;;;4.07;1.45;;;;;;;;;;6068858;23;19999;-89
2023/07/11 11:45:49;;;;;;;3.85;1.77;;;;;;;;;;6069635;23;20621;-88
2023/07/11 11:48:26;;;;;;;5.30;2.00;;;;;;;;;;6068608;23;20006;-88
2023/07/11 11:50:52;;;;;;;7.00;1.80;;;;;;;;;;6068681;23;20003;-89
2023/07/11 11:53:22;;;;;;;5.18;1.80;;;;;;;;;;6072900;23;20335;-88
2023/07/11 11:55:58;;;;;;;3.75;1.92;;;;;;;;;;6070046;23;20039;-88
2023/07/11 11:58:25;;;;;;;7.30;1.50;;;;;;;;;;6068707;23;20003;-88
2023/07/11 12:00:51;;;;;;;3.42;1.52;;;;;;;;;;6070100;23;20058;-88
2023/07/11 12:03:26;;;;;;;4.10;1.70;;;;;;;;;;6068745;23;20149;-88
2023/07/11 12:05:52;;;;;;;4.22;1.90;;;;;;;;;;6068434;23;20007;-89
2023/07/11 12:08:34;;;;;;;4.25;1.60;;;;;;;;;;6067921;23;19999;-88
2023/07/11 12:11:00;;;;;;;3.40;1.45;;;;;;;;;;6068638;23;20486;-89
2023/07/11 12:13:30;;;;;;;2.17;1.27;;;;;;;;;;6068169;23;20058;-88
2023/07/11 12:16:00;;;;;;;6.80;1.63;;;;;;;;;;6068309;23;20006;-88
2023/07/11 12:18:41;;;;;;;5.47;1.30;;;;;;;;;;6067889;23;20387;-88
2023/07/11 12:21:16;;;;;;;5.78;1.95;;;;;;;;;;6069794;23;20047;-89
2023/07/11 12:23:50;;;;;;;3.50;1.63;;;;;;;;;;6067958;23;20090;-88
2023/07/11 12:26:18;;;;;;;3.97;1.55;;;;;;;;;;6067861;23;19998;-88
2023/07/11 12:28:45;;;;;;;4.78;1.50;;;;;;;;;;6067132;23;20021;-89
2023/07/11 12:31:16;;;;;;;3.30;1.20;;;;;;;;;;6068018;23;19999;-89
2023/07/11 12:33:41;;;;;;;4.00;1.60;;;;;;;;;;6067341;23;20389;-89
2023/07/11 12:36:07;;;;;;;5.80;1.40;;;;;;;;;;6067496;23;20006;-87
2023/07/11 12:38:39;;;;;;;4.53;1.45;;;;;;;;;;6067934;23;20023;-87
2023/07/11 12:41:21;;;;;;;3.75;1.58;;;;;;;;;;6069674;23;20018;-89
2023/07/11 12:43:48;;;;;;;4.40;1.67;;;;;;;;;;6067070;23;20034;-87
2023/07/11 12:46:22;;;;;;;3.45;1.63;;;;;;;;;;6068102;23;20320;-87
2023/07/11 12:48:49;;;;;;;5.20;1.30;;;;;;;;;;6043419;23;20003;-87
2023/07/11 12:51:21;;;;;;;2.53;1.33;;;;;;;;;;6043382;23;20003;-87
2023/07/11 12:53:48;;;;;;;4.95;1.60;;;;;;;;;;6069041;23;20017;-86
2023/07/11 12:56:14;;;;;;;3.10;1.60;;;;;;;;;;6042457;23;20030;-86
2023/07/11 12:58:39;;;;;;;4.28;1.45;;;;;;;;;;6064910;23;20026;-86
2023/07/11 13:01:05;;;;;;;2.75;1.42;;;;;;;;;;6041986;23;20138;-87
2023/07/11 13:03:34;;;;;;;9.55;1.60;;;;;;;;;;6040836;23;20066;-87
2023/07/11 13:06:04;;;;;;;4.40;1.58;;;;;;;;;;6043934;23;20591;-89
2023/07/11 13:08:30;;;;;;;3.58;1.50;;;;;;;;;;6042539;23;20034;-90
2023/07/11 13:10:59;;;;;;;3.65;1.65;;;;;;;;;;6067375;23;20010;-89
2023/07/11 13:13:25;;;;;;;4.63;2.00;;;;;;;;;;6043004;23;20507;-88
2023/07/11 13:15:51;;;;;;;3.15;1.20;;;;;;;;;;6067824;23;20002;-87
2023/07/11 13:18:30;;;;;;;3.95;1.40;;;;;;;;;;6043080;23;20035;-88
2023/07/11 13:20:56;;;;;;;3.85;1.40;;;;;;;;;;6046161;23;20011;-89
2023/07/11 13:23:22;;;;;;;5.50;1.20;;;;;;;;;;6045233;23;20276;-89
2023/07/11 13:25:47;;;;;;;4.55;1.58;;;;;;;;;;6044989;23;20487;-89
2023/07/11 13:28:17;;;;;;;3.85;1.40;;;;;;;;;;6046390;23;20447;-89
2023/07/11 13:30:42;;;;;;;3.03;1.20;;;;;;;;;;6045147;23;20487;-89
2023/07/11 13:33:15;;;;;;;3.13;1.55;;;;;;;;;;6069604;23;20010;-89
2023/07/11 13:35:56;;;;;;;2.53;1.23;;;;;;;;;;6044700;23;20010;-89
2023/07/11 13:38:22;;;;;;;3.65;1.17;;;;;;;;;;6070578;23;20399;-89
2023/07/11 13:40:53;;;;;;;3.47;1.05;;;;;;;;;;6044507;23;20015;-89
2023/07/11 13:43:19;;;;;;;2.42;1.30;;;;;;;;;;6043852;23;19999;-89
2023/07/11 13:45:45;;;;;;;4.43;1.23;;;;;;;;;;6043636;23;20013;-88
2023/07/11 13:48:14;;;;;;;8.02;1.10;;;;;;;;;;6043941;23;19995;-88
2023/07/11 13:50:40;;;;;;;2.03;1.00;;;;;;;;;;6043473;23;20009;-89
2023/07/11 13:53:14;;;;;;;3.90;1.48;;;;;;;;;;6043103;23;20038;-89
2023/07/11 13:55:50;;;;;;;4.15;1.40;;;;;;;;;;6042812;23;20375;-91
2023/07/11 13:58:19;;;;;;;3.13;1.10;;;;;;;;;;6043160;23;20041;-90
2023/07/11 14:00:46;;;;;;;3.75;1.30;;;;;;;;;;6066961;23;20007;-89
2023/07/11 14:03:21;;;;;;;4.22;1.20;;;;;;;;;;6042264;23;20003;-89
2023/07/11 14:05:48;;;;;;;2.97;1.27;;;;;;;;;;6042987;23;20121;-90
2023/07/11 14:08:13;;;;;;;4.82;1.63;;;;;;;;;;6043121;23;20404;-89
2023/07/11 14:10:38;;;;;;;3.55;1.20;;;;;;;;;;6043191;23;20009;-90
2023/07/11 14:13:09;;;;;;;3.03;1.27;;;;;;;;;;6065458;23;20003;-90
2023/07/11 14:15:37;;;;;;;2.80;1.30;;;;;;;;;;6068193;23;20003;-89
2023/07/11 14:18:04;;;;;;;4.75;1.20;;;;;;;;;;6043540;23;19999;-88
2023/07/11 14:20:29;;;;;;;2.17;1.27;;;;;;;;;;6067121;23;20030;-89
2023/07/11 14:23:04;;;;;;;4.50;1.27;;;;;;;;;;6043070;23;20011;-88
2023/07/11 14:25:33;;;;;;;2.15;1.30;;;;;;;;;;6043783;23;20438;-89
2023/07/11 14:28:01;;;;;;;2.15;1.20;;;;;;;;;;6043370;23;20077;-89
2023/07/11 14:30:29;;;;;;;5.20;1.25;;;;;;;;;;6043578;23;20423;-89
2023/07/11 14:32:54;;;;;;;4.13;1.30;;;;;;;;;;6068814;23;20419;-87
2023/07/11 14:35:21;;;;;;;3.40;1.20;;;;;;;;;;6043416;23;20010;-89
2023/07/11 14:37:47;;;;;;;6.78;1.35;;;;;;;;;;6043321;23;20007;-89
2023/07/11 14:40:19;;;;;;;2.30;1.13;;;;;;;;;;6043572;23;20013;-89
2023/07/11 14:42:46;;;;;;;6.07;1.30;;;;;;;;;;6067168;23;20316;-88
2023/07/11 14:45:14;;;;;;;2.53;1.02;;;;;;;;;;6067874;23;20006;-88
2023/07/11 14:47:39;;;;;;;2.72;1.00;;;;;;;;;;6068399;23;20054;-88